createdAt,value
2018-06-20T00:00:11.434Z,19.80
2018-06-20T00:02:40.026Z,20.00
2018-06-20T00:05:08.516Z,20.10
2018-06-20T00:07:36.968Z,20.30
2018-06-20T00:10:05.509Z,20.80
2018-06-20T00:12:33.975Z,20.90
2018-06-20T00:15:02.553Z,20.70
2018-06-20T00:17:31.026Z,19.90
2018-06-20T00:19:59.533Z,19.70
2018-06-20T00:22:28.031Z,19.50
2018-06-20T00:24:56.541Z,20.50
2018-06-20T00:32:21.538Z,19.60
2018-06-20T00:34:50.044Z,20.10
2018-06-20T00:39:46.841Z,19.90
2018-06-20T00:42:15.380Z,19.60
2018-06-20T00:47:12.024Z,19.30
2018-06-20T00:49:40.602Z,19.30
2018-06-20T00:54:37.385Z,19.80
2018-06-20T00:57:05.868Z,20.00
2018-06-20T00:59:34.450Z,19.40
2018-06-20T01:06:59.220Z,18.80
2018-06-20T01:14:30.961Z,19.00
2018-06-20T01:19:27.585Z,18.30
2018-06-20T01:21:56.064Z,18.30
2018-06-20T01:24:24.518Z,17.50
2018-06-20T01:26:52.976Z,19.00
2018-06-20T01:29:21.458Z,17.70
2018-06-20T01:31:49.987Z,18.10
2018-06-20T01:34:18.418Z,17.60
2018-06-20T01:36:46.890Z,18.30
2018-06-20T01:39:15.391Z,18.20
2018-06-20T01:41:43.923Z,18.00
2018-06-20T01:44:12.400Z,18.00
2018-06-20T01:49:09.027Z,18.40
2018-06-20T01:59:02.123Z,17.10
2018-06-20T02:01:30.651Z,18.30
2018-06-20T02:03:59.135Z,17.20
2018-06-20T02:06:27.615Z,17.80
2018-06-20T02:11:29.935Z,17.50
2018-06-20T02:13:58.471Z,18.60
2018-06-20T02:18:55.092Z,17.00
2018-06-20T02:23:51.749Z,16.50
2018-06-20T02:28:48.400Z,17.50
2018-06-20T02:31:16.883Z,17.00
2018-06-20T02:36:18.920Z,16.90
2018-06-20T02:43:43.662Z,16.60
2018-06-20T02:51:08.497Z,16.70
2018-06-20T02:53:36.956Z,17.10
2018-06-20T02:56:05.469Z,18.20
2018-06-20T02:58:33.956Z,16.00
2018-06-20T03:03:30.685Z,16.60
2018-06-20T03:08:27.432Z,17.40
2018-06-20T03:10:55.893Z,16.30
2018-06-20T03:15:52.609Z,16.80
2018-06-20T03:25:46.410Z,16.80
2018-06-20T03:28:15.033Z,17.40
2018-06-20T03:30:43.583Z,16.40
2018-06-20T03:40:36.960Z,17.20
2018-06-20T03:43:05.500Z,17.10
2018-06-20T03:45:34.031Z,17.20
2018-06-20T03:48:02.524Z,17.50
2018-06-20T03:50:30.999Z,17.20
2018-06-20T03:52:59.453Z,17.40
2018-06-20T03:55:28.153Z,16.30
2018-06-20T03:57:57.025Z,16.40
2018-06-20T04:00:25.822Z,17.40
2018-06-20T04:07:51.584Z,17.40
2018-06-20T04:10:20.904Z,16.80
2018-06-20T04:12:49.483Z,17.70
2018-06-20T04:15:17.947Z,17.20
2018-06-20T04:17:46.465Z,17.50
2018-06-20T04:20:15.145Z,17.30
2018-06-20T04:22:43.655Z,17.60
2018-06-20T04:25:12.209Z,17.00
2018-06-20T04:27:40.663Z,17.20
2018-06-20T04:30:09.224Z,17.90
2018-06-20T04:32:37.722Z,17.80
2018-06-20T04:35:06.250Z,17.40
2018-06-20T04:37:34.728Z,17.80
2018-06-20T04:42:31.371Z,17.70
2018-06-20T04:44:59.982Z,18.20
2018-06-20T04:47:28.474Z,18.10
2018-06-20T04:52:25.138Z,17.80
2018-06-20T04:57:21.895Z,17.20
2018-06-20T04:59:50.362Z,18.10
2018-06-20T05:02:18.869Z,18.00
2018-06-20T05:09:44.081Z,18.20
2018-06-20T05:12:12.596Z,18.40
2018-06-20T05:14:41.095Z,17.50
2018-06-20T05:17:09.576Z,18.70
2018-06-20T05:22:06.308Z,18.30
2018-06-20T05:24:34.782Z,18.60
2018-06-20T05:27:03.316Z,18.70
2018-06-20T05:34:28.113Z,19.30
2018-06-20T05:39:25.249Z,19.20
2018-06-20T05:41:53.691Z,19.10
2018-06-20T05:46:50.374Z,19.70
2018-06-20T05:49:18.843Z,19.30
2018-06-20T05:51:47.333Z,18.90
2018-06-20T05:54:15.791Z,19.60
2018-06-20T05:56:44.271Z,19.80
2018-06-20T05:59:12.727Z,19.80
2018-06-20T06:04:09.365Z,19.70
2018-06-20T06:06:37.843Z,20.50
2018-06-20T06:09:07.710Z,19.80
2018-06-20T06:11:36.279Z,19.90
2018-06-20T06:14:04.775Z,19.90
2018-06-20T06:16:33.243Z,19.90
2018-06-20T06:19:01.763Z,20.60
2018-06-20T06:21:30.228Z,20.40
2018-06-20T06:23:58.711Z,19.80
2018-06-20T06:26:27.192Z,21.40
2018-06-20T06:28:55.726Z,20.50
2018-06-20T06:31:24.215Z,21.40
2018-06-20T06:33:52.704Z,21.30
2018-06-20T06:36:21.198Z,21.50
2018-06-20T06:38:49.636Z,22.40
2018-06-20T06:41:18.149Z,21.80
2018-06-20T06:43:46.636Z,23.10
2018-06-20T06:46:15.139Z,21.20
2018-06-20T06:48:43.640Z,23.30
2018-06-20T06:51:12.094Z,23.90
2018-06-20T06:53:40.841Z,23.70
2018-06-20T06:56:09.359Z,23.80
2018-06-20T06:58:38.034Z,24.50
2018-06-20T07:01:06.541Z,23.90
2018-06-20T07:03:35.000Z,23.70
2018-06-20T07:06:03.498Z,24.80
2018-06-20T07:08:32.133Z,24.70
2018-06-20T07:11:00.704Z,26.20
2018-06-20T07:20:53.806Z,25.30
2018-06-20T07:23:22.278Z,25.80
2018-06-20T07:25:51.068Z,25.70
2018-06-20T07:28:19.608Z,25.70
2018-06-20T07:30:48.119Z,26.00
2018-06-20T07:33:16.817Z,27.00
2018-06-20T07:35:45.381Z,26.20
2018-06-20T07:38:13.859Z,26.70
2018-06-20T07:40:42.330Z,26.10
2018-06-20T07:43:10.839Z,26.20
2018-06-20T07:45:39.320Z,26.60
2018-06-20T07:48:07.785Z,26.40
2018-06-20T07:50:36.340Z,26.60
2018-06-20T07:53:04.772Z,26.50
2018-06-20T07:55:33.203Z,26.70
2018-06-20T07:58:01.650Z,26.10
2018-06-20T08:00:35.535Z,25.60
2018-06-20T08:03:18.604Z,26.90
2018-06-20T08:06:56.710Z,27.90
2018-06-20T08:09:30.549Z,27.40
2018-06-20T08:14:37.959Z,27.70
2018-06-20T08:17:12.001Z,27.90
2018-06-20T08:19:45.707Z,27.90
2018-06-20T08:22:18.176Z,27.90
2018-06-20T08:29:48.695Z,28.30
2018-06-20T08:32:17.193Z,28.50
2018-06-20T08:34:45.698Z,28.60
2018-06-20T08:37:14.295Z,28.40
2018-06-20T08:42:10.935Z,29.20
2018-06-20T08:44:39.383Z,28.60
2018-06-20T08:47:07.873Z,27.70
2018-06-20T08:49:36.304Z,27.10
2018-06-20T08:52:04.812Z,27.40
2018-06-20T08:54:33.298Z,27.00
2018-06-20T08:57:01.763Z,26.50
2018-06-20T08:59:30.269Z,26.80
2018-06-20T09:01:58.903Z,26.80
2018-06-20T09:04:32.711Z,26.20
2018-06-20T09:07:06.647Z,26.60
2018-06-20T09:09:40.460Z,25.70
2018-06-20T09:12:14.393Z,25.80
2018-06-20T09:14:48.092Z,26.80
2018-06-20T09:17:21.967Z,28.00
2018-06-20T09:19:52.696Z,27.90
2018-06-20T09:22:21.187Z,28.60
2018-06-20T09:24:49.751Z,30.50
2018-06-20T09:27:18.266Z,29.60
2018-06-20T09:29:46.745Z,30.00
2018-06-20T09:32:15.584Z,30.70
2018-06-20T09:34:44.671Z,30.60
2018-06-20T09:37:13.219Z,30.20
2018-06-20T09:39:41.706Z,30.60
2018-06-20T09:42:10.162Z,30.00
2018-06-20T09:44:38.627Z,29.60
2018-06-20T09:47:07.225Z,30.00
2018-06-20T09:49:35.742Z,30.00
2018-06-20T09:52:04.225Z,29.90
2018-06-20T09:54:32.711Z,29.90
2018-06-20T09:57:01.316Z,30.80
2018-06-20T09:59:35.081Z,31.00
2018-06-20T10:02:09.007Z,31.10
2018-06-20T10:04:42.678Z,30.20
2018-06-20T10:07:14.910Z,30.40
2018-06-20T10:09:53.695Z,29.50
2018-06-20T10:12:27.547Z,28.80
2018-06-20T10:14:56.083Z,28.10
2018-06-20T10:17:24.601Z,28.40
2018-06-20T10:19:53.081Z,28.00
2018-06-20T10:22:21.607Z,28.40
2018-06-20T10:24:50.077Z,28.80
2018-06-20T10:27:18.605Z,28.60
2018-06-20T10:29:47.157Z,26.80
2018-06-20T10:32:15.625Z,27.80
2018-06-20T10:34:44.153Z,27.30
2018-06-20T10:37:12.652Z,28.00
2018-06-20T10:39:41.129Z,27.80
2018-06-20T10:42:09.721Z,28.60
2018-06-20T10:44:38.313Z,28.40
2018-06-20T10:47:11.972Z,28.50
2018-06-20T10:52:15.126Z,28.40
2018-06-20T10:54:43.741Z,27.90
2018-06-20T10:57:17.485Z,28.20
2018-06-20T10:59:51.337Z,27.60
2018-06-20T11:03:25.792Z,28.50
2018-06-20T11:05:59.751Z,28.30
2018-06-20T11:08:33.492Z,28.00
2018-06-20T11:11:07.337Z,28.30
2018-06-20T11:13:35.845Z,27.70
2018-06-20T11:16:04.540Z,27.10
2018-06-20T11:18:34.572Z,26.80
2018-06-20T11:21:03.083Z,27.40
2018-06-20T11:23:31.536Z,27.10
2018-06-20T11:26:00.150Z,27.60
2018-06-20T11:28:28.645Z,28.20
2018-06-20T11:30:57.106Z,28.30
2018-06-20T11:33:25.703Z,29.30
2018-06-20T11:38:22.388Z,29.60
2018-06-20T11:40:50.891Z,28.40
2018-06-20T11:43:19.371Z,29.90
2018-06-20T11:45:53.126Z,29.80
2018-06-20T11:48:21.648Z,30.20
2018-06-20T11:50:50.123Z,31.00
2018-06-20T11:53:18.610Z,30.00
2018-06-20T11:55:47.672Z,30.90
2018-06-20T11:58:21.596Z,31.20
2018-06-20T12:00:55.387Z,31.50
2018-06-20T12:08:36.630Z,30.70
2018-06-20T12:13:44.003Z,29.80
2018-06-20T12:16:30.052Z,30.30
2018-06-20T12:19:03.980Z,30.10
2018-06-20T12:21:37.824Z,30.00
2018-06-20T12:26:45.225Z,30.90
2018-06-20T12:29:19.088Z,31.00
2018-06-20T12:31:52.934Z,30.50
2018-06-20T12:37:00.342Z,30.20
2018-06-20T12:39:28.010Z,31.10
2018-06-20T12:42:01.801Z,30.90
2018-06-20T12:47:13.349Z,31.10
2018-06-20T12:49:45.982Z,30.30
2018-06-20T12:52:15.840Z,30.20
2018-06-20T12:54:45.049Z,29.80
2018-06-20T12:57:13.538Z,28.80
2018-06-20T12:59:42.127Z,29.50
2018-06-20T13:02:10.575Z,29.50
2018-06-20T13:04:39.039Z,29.40
2018-06-20T13:07:07.565Z,28.30
2018-06-20T13:09:36.149Z,28.90
2018-06-20T13:12:04.711Z,29.60
2018-06-20T13:17:01.377Z,28.90
2018-06-20T13:24:26.340Z,28.60
2018-06-20T13:26:54.913Z,28.60
2018-06-20T13:29:23.531Z,28.80
2018-06-20T13:31:57.355Z,29.00
2018-06-20T13:37:04.818Z,28.10
2018-06-20T13:39:38.716Z,28.30
2018-06-20T13:42:08.794Z,27.80
2018-06-20T13:44:37.323Z,29.00
2018-06-20T13:47:11.934Z,28.90
2018-06-20T13:49:41.117Z,28.20
2018-06-20T13:52:10.447Z,28.20
2018-06-20T13:54:38.953Z,27.20
2018-06-20T13:57:07.478Z,27.80
2018-06-20T13:59:36.471Z,28.20
2018-06-20T14:02:04.998Z,28.40
2018-06-20T14:07:02.454Z,28.80
2018-06-20T14:09:31.019Z,29.20
2018-06-20T14:11:59.493Z,28.70
2018-06-20T14:14:27.990Z,28.70
2018-06-20T14:16:56.576Z,27.90
2018-06-20T14:19:30.352Z,27.90
2018-06-20T14:22:02.372Z,28.20
2018-06-20T14:29:32.533Z,28.40
2018-06-20T14:38:16.252Z,28.40
2018-06-20T14:43:23.855Z,28.20
2018-06-20T14:45:57.708Z,29.10
2018-06-20T14:53:22.706Z,28.60
2018-06-20T14:55:51.296Z,28.20
2018-06-20T15:00:48.013Z,28.70
2018-06-20T15:03:16.635Z,28.50
2018-06-20T15:05:45.259Z,28.20
2018-06-20T15:08:13.891Z,28.50
2018-06-20T15:10:42.676Z,28.70
2018-06-20T15:15:39.880Z,28.20
2018-06-20T15:18:08.452Z,28.10
2018-06-20T15:20:36.983Z,28.80
2018-06-20T15:23:05.643Z,27.90
2018-06-20T15:28:08.519Z,28.70
2018-06-20T15:33:15.956Z,27.60
2018-06-20T15:35:49.734Z,28.50
2018-06-20T15:38:20.006Z,28.20
2018-06-20T15:43:16.873Z,27.90
2018-06-20T15:45:45.398Z,28.80
2018-06-20T15:50:42.192Z,27.90
2018-06-20T15:53:10.738Z,27.80
2018-06-20T15:55:39.249Z,28.10
2018-06-20T15:58:07.864Z,26.90
2018-06-20T16:03:04.725Z,27.90
2018-06-20T16:05:33.288Z,28.20
2018-06-20T16:10:30.015Z,28.20
2018-06-20T16:12:58.496Z,28.90
2018-06-20T16:17:55.149Z,28.20
2018-06-20T16:20:29.016Z,27.20
2018-06-20T16:25:36.608Z,28.00
2018-06-20T16:28:10.508Z,27.70
2018-06-20T16:30:41.292Z,28.00
2018-06-20T16:33:09.832Z,28.50
2018-06-20T16:38:07.213Z,28.50
2018-06-20T16:40:36.030Z,27.90
2018-06-20T16:43:04.775Z,27.90
2018-06-20T16:45:33.371Z,27.90
2018-06-20T16:48:01.873Z,28.10
2018-06-20T16:50:30.376Z,28.10
2018-06-20T16:52:58.816Z,27.40
2018-06-20T16:55:27.379Z,27.40
2018-06-20T16:57:55.904Z,28.00
2018-06-20T17:00:24.413Z,27.10
2018-06-20T17:05:21.103Z,27.50
2018-06-20T17:07:49.674Z,27.70
2018-06-20T17:10:20.630Z,27.60
2018-06-20T17:12:55.348Z,27.20
2018-06-20T17:15:29.337Z,26.70
2018-06-20T17:18:02.980Z,27.40
2018-06-20T17:25:40.980Z,27.30
2018-06-20T17:33:06.215Z,26.60
2018-06-20T17:35:34.765Z,26.90
2018-06-20T17:38:03.392Z,26.90
2018-06-20T17:40:31.935Z,26.30
2018-06-20T17:43:00.475Z,27.40
2018-06-20T17:45:29.031Z,27.10
2018-06-20T17:47:57.529Z,26.60
2018-06-20T17:50:26.049Z,25.30
2018-06-20T17:52:54.575Z,26.40
2018-06-20T17:55:23.343Z,26.90
2018-06-20T17:57:51.885Z,26.90
2018-06-20T18:00:20.509Z,26.30
2018-06-20T18:05:22.674Z,26.30
2018-06-20T18:07:56.597Z,26.60
2018-06-20T18:10:30.381Z,26.10
2018-06-20T18:15:36.656Z,26.20
2018-06-20T18:18:05.918Z,25.40
2018-06-20T18:20:34.541Z,25.80
2018-06-20T18:23:03.405Z,24.20
2018-06-20T18:25:32.100Z,25.90
2018-06-20T18:30:28.899Z,25.90
2018-06-20T18:35:25.804Z,25.50
2018-06-20T18:37:55.187Z,25.20
2018-06-20T18:40:24.632Z,25.10
2018-06-20T18:42:54.088Z,25.20
2018-06-20T18:47:57.053Z,25.10
2018-06-20T18:50:26.359Z,24.20
2018-06-20T18:52:55.355Z,24.00
2018-06-20T18:55:29.321Z,24.40
2018-06-20T19:00:37.392Z,24.70
2018-06-20T19:05:52.464Z,24.20
2018-06-20T19:10:55.226Z,25.00
2018-06-20T19:13:23.899Z,22.70
2018-06-20T19:25:46.518Z,23.10
2018-06-20T19:28:15.300Z,22.80
2018-06-20T19:30:44.538Z,23.10
2018-06-20T19:33:13.378Z,23.30
2018-06-20T19:35:42.737Z,24.10
2018-06-20T19:38:13.093Z,23.30
2018-06-20T19:40:43.168Z,23.20
2018-06-20T19:43:11.902Z,22.20
2018-06-20T19:48:10.061Z,22.80
2018-06-20T19:50:39.038Z,21.30
2018-06-20T19:53:07.636Z,22.80
2018-06-20T19:58:04.706Z,22.90
2018-06-20T20:00:33.479Z,22.40
2018-06-20T20:03:03.092Z,21.90
2018-06-20T20:05:31.728Z,21.30
2018-06-20T20:08:00.519Z,22.20
2018-06-20T20:10:29.771Z,21.50
2018-06-20T20:15:27.007Z,22.00
2018-06-20T20:22:53.727Z,21.20
2018-06-20T20:27:50.888Z,21.10
2018-06-20T20:30:20.765Z,22.10
2018-06-20T20:35:18.245Z,21.30
2018-06-20T20:37:47.844Z,21.50
2018-06-20T20:42:44.743Z,19.80
2018-06-20T20:45:13.325Z,19.90
2018-06-20T20:47:41.897Z,21.20
2018-06-20T20:57:35.366Z,20.20
2018-06-20T21:02:32.289Z,18.80
2018-06-20T21:14:54.104Z,19.70
2018-06-20T21:19:51.917Z,19.70
2018-06-20T21:22:20.924Z,19.50
2018-06-20T21:24:49.434Z,19.00
2018-06-20T21:27:17.992Z,20.00
2018-06-20T21:29:46.535Z,19.00
2018-06-20T21:32:15.037Z,19.00
2018-06-20T21:34:43.579Z,19.80
2018-06-20T21:47:05.314Z,19.80
2018-06-20T21:52:02.016Z,18.80
2018-06-20T21:54:30.457Z,19.00
2018-06-20T21:56:58.971Z,17.70
2018-06-20T21:59:27.429Z,18.40
2018-06-20T22:01:55.915Z,19.10
2018-06-20T22:06:52.814Z,18.90
2018-06-20T22:14:17.722Z,18.40
2018-06-20T22:16:46.255Z,16.70
2018-06-20T22:19:14.805Z,18.90
2018-06-20T22:24:11.629Z,18.40
2018-06-20T22:26:40.177Z,18.10
2018-06-20T22:29:08.675Z,18.70
2018-06-20T22:34:05.449Z,18.90
2018-06-20T22:36:33.955Z,19.30
2018-06-20T22:39:02.600Z,18.30
2018-06-20T22:43:59.311Z,18.70
2018-06-20T22:46:27.823Z,18.40
2018-06-20T22:48:56.307Z,18.10
2018-06-20T22:51:24.822Z,17.50
2018-06-20T22:58:49.668Z,18.00
2018-06-20T23:06:14.596Z,17.40
2018-06-20T23:08:43.129Z,17.50
2018-06-20T23:11:11.608Z,17.60
2018-06-20T23:16:08.363Z,17.40
2018-06-20T23:21:05.062Z,17.60
2018-06-20T23:23:33.599Z,15.70
2018-06-20T23:26:02.179Z,17.20
2018-06-20T23:28:30.665Z,16.60
2018-06-20T23:30:59.151Z,17.30
2018-06-20T23:33:27.649Z,17.20
2018-06-20T23:35:56.239Z,16.80
2018-06-20T23:40:52.921Z,17.20
2018-06-20T23:43:21.451Z,18.00
2018-06-20T23:45:50.059Z,17.90
2018-06-20T23:48:18.537Z,17.20
2018-06-20T23:53:15.163Z,18.20
2018-06-20T23:55:43.599Z,17.70
2018-06-20T23:58:12.091Z,15.70
